createdAt,value
2022-11-03T00:02:14.926Z,10.70
2022-11-03T00:04:41.794Z,10.07
2022-11-03T00:07:08.600Z,12.83
2022-11-03T00:09:38.535Z,9.73
2022-11-03T00:12:05.633Z,9.33
2022-11-03T00:14:32.470Z,12.30
2022-11-03T00:16:59.296Z,9.43
2022-11-03T00:19:26.086Z,12.33
2022-11-03T00:21:52.896Z,7.07
2022-11-03T00:24:27.307Z,11.10
2022-11-03T00:26:54.643Z,11.63
2022-11-03T00:29:21.785Z,12.03
2022-11-03T00:31:48.572Z,10.37
2022-11-03T00:34:15.323Z,10.23
2022-11-03T00:36:43.954Z,11.20
2022-11-03T00:39:12.767Z,11.37
2022-11-03T00:41:40.166Z,10.23
2022-11-03T00:44:07.228Z,14.30
2022-11-03T00:46:36.918Z,8.50
2022-11-03T00:49:05.496Z,9.83
2022-11-03T00:51:34.423Z,13.23
2022-11-03T00:54:02.664Z,10.27
2022-11-03T00:56:42.351Z,10.67
2022-11-03T00:59:10.127Z,7.70
2022-11-03T01:01:46.602Z,11.30
2022-11-03T01:07:15.545Z,7.73
2022-11-03T01:09:43.606Z,8.73
2022-11-03T01:12:16.056Z,8.23
2022-11-03T01:14:51.461Z,10.37
2022-11-03T01:17:24.213Z,8.77
2022-11-03T01:19:51.316Z,9.43
2022-11-03T01:22:18.804Z,8.50
2022-11-03T01:24:46.436Z,9.67
2022-11-03T01:27:19.134Z,6.93
2022-11-03T01:29:46.277Z,12.07
2022-11-03T01:32:13.384Z,10.33
2022-11-03T01:34:40.178Z,8.13
2022-11-03T01:37:07.025Z,10.67
2022-11-03T01:39:33.982Z,8.60
2022-11-03T01:42:00.864Z,8.07
2022-11-03T01:44:27.723Z,9.10
2022-11-03T01:47:28.184Z,9.70
2022-11-03T01:50:03.056Z,14.03
2022-11-03T01:52:49.001Z,10.63
2022-11-03T01:55:24.556Z,12.73
2022-11-03T01:58:00.727Z,11.57
2022-11-03T02:00:27.716Z,10.63
2022-11-03T02:02:54.941Z,12.70
2022-11-03T02:05:25.572Z,11.70
2022-11-03T02:08:14.087Z,10.97
2022-11-03T02:10:42.158Z,12.83
2022-11-03T02:13:24.608Z,11.20
2022-11-03T02:15:55.314Z,11.67
2022-11-03T02:18:29.555Z,12.17
2022-11-03T02:21:38.263Z,13.27
2022-11-03T02:24:38.354Z,13.50
2022-11-03T02:27:05.287Z,11.10
2022-11-03T02:29:32.173Z,13.13
2022-11-03T02:32:10.956Z,16.13
2022-11-03T02:34:49.505Z,12.57
2022-11-03T02:37:27.332Z,16.37
2022-11-03T02:39:59.363Z,15.90
2022-11-03T02:42:26.762Z,15.60
2022-11-03T02:44:57.998Z,15.07
2022-11-03T02:47:27.866Z,15.33
2022-11-03T02:52:39.803Z,15.53
2022-11-03T02:55:27.803Z,16.30
2022-11-03T02:58:35.111Z,17.93
2022-11-03T03:01:14.818Z,16.90
2022-11-03T03:04:10.161Z,19.63
2022-11-03T03:06:38.550Z,15.73
2022-11-03T03:09:08.432Z,15.87
2022-11-03T03:11:38.531Z,20.40
2022-11-03T03:14:13.981Z,14.70
2022-11-03T03:17:00.697Z,14.87
2022-11-03T03:19:53.080Z,13.67
2022-11-03T03:22:25.769Z,15.40
2022-11-03T03:25:01.030Z,19.60
2022-11-03T03:27:31.622Z,13.70
2022-11-03T03:30:07.249Z,13.17
2022-11-03T03:32:39.698Z,13.50
2022-11-03T03:35:11.135Z,13.80
2022-11-03T03:37:42.943Z,17.57
2022-11-03T03:40:14.516Z,14.90
2022-11-03T03:42:43.745Z,13.20
2022-11-03T03:45:12.139Z,14.43
2022-11-03T03:47:39.186Z,19.60
2022-11-03T03:50:06.991Z,18.63
2022-11-03T03:52:37.745Z,17.13
2022-11-03T03:55:06.902Z,16.27
2022-11-03T03:57:33.779Z,16.93
2022-11-03T04:00:00.600Z,11.90
2022-11-03T04:02:27.598Z,13.73
2022-11-03T04:04:54.547Z,16.90
2022-11-03T04:07:42.634Z,14.60
2022-11-03T04:10:11.437Z,16.50
2022-11-03T04:13:00.290Z,15.27
2022-11-03T04:15:45.809Z,18.43
2022-11-03T04:18:31.362Z,15.70
2022-11-03T04:21:16.806Z,16.53
2022-11-03T04:23:43.981Z,11.90
2022-11-03T04:26:16.141Z,12.07
2022-11-03T04:28:43.615Z,14.53
2022-11-03T04:31:14.511Z,14.50
2022-11-03T04:33:42.279Z,13.83
2022-11-03T04:36:18.254Z,14.67
2022-11-03T04:38:45.515Z,14.00
2022-11-03T04:41:23.075Z,17.53
2022-11-03T04:43:51.675Z,17.33
2022-11-03T04:46:25.979Z,20.10
2022-11-03T04:48:59.231Z,12.87
2022-11-03T04:51:31.142Z,18.23
2022-11-03T04:54:06.648Z,16.63
2022-11-03T04:56:34.047Z,13.70
2022-11-03T04:59:00.887Z,15.93
2022-11-03T05:01:30.028Z,15.30
2022-11-03T05:04:00.006Z,15.40
2022-11-03T05:06:29.758Z,17.77
2022-11-03T05:09:00.597Z,15.67
2022-11-03T05:11:34.932Z,18.57
2022-11-03T05:14:07.061Z,16.57
2022-11-03T05:16:35.013Z,15.90
2022-11-03T05:19:02.296Z,14.87
2022-11-03T05:21:29.569Z,12.77
2022-11-03T05:24:02.446Z,15.57
2022-11-03T05:26:35.189Z,19.73
2022-11-03T05:29:09.014Z,16.40
2022-11-03T05:31:37.370Z,16.23
2022-11-03T05:34:24.734Z,16.27
2022-11-03T05:36:51.694Z,17.60
2022-11-03T05:39:28.544Z,14.60
2022-11-03T05:41:57.616Z,16.60
2022-11-03T05:44:37.902Z,16.10
2022-11-03T05:47:20.783Z,17.00
2022-11-03T05:49:50.114Z,16.23
2022-11-03T05:52:23.175Z,14.57
2022-11-03T05:54:51.016Z,15.60
2022-11-03T05:57:18.834Z,16.57
2022-11-03T05:59:49.520Z,15.17
2022-11-03T06:02:41.490Z,17.37
2022-11-03T06:05:18.209Z,15.70
2022-11-03T06:07:48.563Z,17.57
2022-11-03T06:10:39.046Z,19.50
2022-11-03T06:13:13.535Z,21.27
2022-11-03T06:15:43.882Z,18.80
2022-11-03T06:18:19.080Z,23.37
2022-11-03T06:20:54.597Z,15.10
2022-11-03T06:23:22.081Z,17.60
2022-11-03T06:25:51.567Z,19.03
2022-11-03T06:28:29.147Z,15.60
2022-11-03T06:30:56.960Z,18.37
2022-11-03T06:33:30.816Z,17.93
2022-11-03T06:36:18.294Z,16.13
2022-11-03T06:38:55.787Z,14.93
2022-11-03T06:41:29.397Z,15.50
2022-11-03T06:44:01.620Z,16.10
2022-11-03T06:46:30.555Z,14.37
2022-11-03T06:49:04.256Z,22.13
2022-11-03T06:51:34.847Z,24.53
2022-11-03T06:54:05.482Z,16.87
2022-11-03T06:56:36.289Z,16.23
2022-11-03T06:59:03.405Z,24.70
2022-11-03T07:01:33.805Z,15.60
2022-11-03T07:04:20.676Z,15.27
2022-11-03T07:06:52.997Z,19.83
2022-11-03T07:09:24.044Z,18.83
2022-11-03T07:11:55.402Z,17.13
2022-11-03T07:14:28.219Z,20.50
2022-11-03T07:17:00.471Z,22.43
2022-11-03T07:19:30.780Z,18.53
2022-11-03T07:22:20.970Z,16.53
2022-11-03T07:24:50.271Z,15.60
2022-11-03T07:27:21.879Z,15.87
2022-11-03T07:29:50.696Z,19.37
2022-11-03T07:32:24.005Z,21.17
2022-11-03T07:34:53.602Z,17.37
2022-11-03T07:37:24.418Z,14.17
2022-11-03T07:39:52.769Z,14.70
2022-11-03T07:42:22.442Z,14.83
2022-11-03T07:44:50.216Z,16.20
2022-11-03T07:47:21.992Z,13.23
2022-11-03T07:49:49.071Z,19.50
2022-11-03T07:52:21.112Z,14.83
2022-11-03T07:54:48.766Z,14.53
2022-11-03T07:57:18.449Z,14.27
2022-11-03T07:59:50.302Z,17.77
2022-11-03T08:02:41.507Z,23.03
2022-11-03T08:05:09.275Z,18.43
2022-11-03T08:07:36.130Z,12.20
2022-11-03T08:10:07.454Z,13.63
2022-11-03T08:12:34.253Z,14.07
2022-11-03T08:15:01.603Z,13.10
2022-11-03T08:17:28.447Z,14.07
2022-11-03T08:19:55.301Z,23.20
2022-11-03T08:22:25.844Z,14.27
2022-11-03T08:24:53.160Z,13.67
2022-11-03T08:27:22.653Z,11.40
2022-11-03T08:46:45.502Z,13.07
2022-11-03T08:49:18.536Z,10.70
2022-11-03T08:56:02.387Z,10.83
2022-11-03T08:58:29.304Z,12.73
2022-11-03T09:00:56.192Z,12.07
2022-11-03T09:03:23.269Z,14.67
2022-11-03T09:12:17.895Z,17.23
2022-11-03T09:14:45.237Z,11.17
2022-11-03T09:20:01.296Z,11.70
2022-11-03T09:33:05.296Z,8.33
2022-11-03T09:34:22.456Z,10.67
2022-11-03T09:35:32.375Z,10.73
2022-11-03T09:44:21.511Z,10.03
2022-11-03T09:46:48.536Z,9.90
2022-11-03T09:49:16.204Z,7.57
2022-11-03T09:51:43.898Z,12.67
2022-11-03T09:54:14.928Z,11.33
2022-11-03T09:56:42.824Z,12.23
2022-11-03T09:59:21.217Z,9.33
2022-11-03T10:01:51.081Z,9.63
2022-11-03T10:04:22.836Z,7.10
2022-11-03T10:06:50.090Z,9.80
2022-11-03T10:09:20.676Z,6.83
2022-11-03T10:11:48.159Z,9.47
2022-11-03T10:14:17.821Z,8.53
2022-11-03T10:17:00.646Z,8.13
2022-11-03T10:19:28.137Z,7.53
2022-11-03T10:21:55.317Z,7.23
2022-11-03T10:24:22.320Z,8.07
2022-11-03T10:26:52.468Z,7.83
2022-11-03T10:29:25.900Z,13.70
2022-11-03T10:31:55.098Z,9.17
2022-11-03T10:34:37.737Z,10.03
2022-11-03T10:37:23.036Z,7.30
2022-11-03T10:39:54.917Z,8.27
2022-11-03T10:42:24.879Z,8.60
2022-11-03T10:45:15.750Z,11.73
2022-11-03T10:47:42.579Z,13.27
2022-11-03T10:50:24.852Z,8.73
2022-11-03T10:52:52.201Z,8.67
2022-11-03T10:55:24.962Z,11.17
2022-11-03T10:57:55.739Z,5.13
2022-11-03T11:00:25.953Z,9.10
2022-11-03T11:03:00.629Z,7.28
2022-11-03T11:05:27.713Z,5.20
2022-11-03T11:07:55.639Z,7.37
2022-11-03T11:10:23.858Z,6.30
2022-11-03T11:13:15.257Z,7.17
2022-11-03T11:15:42.062Z,5.53
2022-11-03T11:18:10.794Z,7.80
2022-11-03T11:20:39.198Z,6.23
2022-11-03T11:23:27.780Z,8.20
2022-11-03T11:26:29.670Z,12.77
2022-11-03T11:29:08.897Z,6.90
2022-11-03T11:31:39.057Z,7.37
2022-11-03T11:34:09.785Z,5.30
2022-11-03T11:36:42.838Z,8.57
2022-11-03T11:39:27.815Z,7.53
2022-11-03T11:42:18.734Z,5.40
2022-11-03T11:44:46.846Z,7.90
2022-11-03T11:47:33.334Z,5.80
2022-11-03T11:50:06.370Z,7.03
2022-11-03T11:52:51.786Z,3.60
2022-11-03T11:55:24.734Z,4.90
2022-11-03T11:57:56.318Z,3.17
2022-11-03T12:00:26.275Z,5.87
2022-11-03T12:02:54.005Z,6.80
2022-11-03T12:05:30.481Z,5.63
2022-11-03T12:07:57.872Z,7.10
2022-11-03T12:10:31.257Z,6.10
2022-11-03T12:13:00.556Z,5.97
2022-11-03T12:15:51.164Z,5.30
2022-11-03T12:18:46.103Z,7.57
2022-11-03T12:21:48.468Z,5.37
2022-11-03T12:24:33.367Z,6.03
2022-11-03T12:27:01.526Z,6.07
2022-11-03T12:29:28.601Z,6.33
2022-11-03T12:31:55.808Z,6.20
2022-11-03T12:34:22.611Z,3.93
2022-11-03T12:36:54.722Z,8.90
2022-11-03T12:39:22.850Z,8.23
2022-11-03T12:41:49.969Z,6.27
2022-11-03T12:44:16.995Z,5.70
2022-11-03T12:46:43.942Z,5.97
2022-11-03T12:49:10.754Z,5.13
2022-11-03T12:51:37.668Z,6.07
2022-11-03T12:54:04.576Z,8.90
2022-11-03T12:56:31.446Z,6.50
2022-11-03T12:58:58.244Z,4.73
2022-11-03T13:01:25.420Z,7.33
2022-11-03T13:03:52.245Z,5.60
2022-11-03T13:06:19.278Z,7.83
2022-11-03T13:08:53.330Z,4.27
2022-11-03T13:11:38.944Z,4.30
2022-11-03T13:14:05.978Z,7.53
2022-11-03T13:16:32.903Z,5.07
2022-11-03T13:18:59.766Z,4.77
2022-11-03T13:21:26.630Z,7.67
2022-11-03T13:23:53.682Z,5.97
2022-11-03T13:26:20.466Z,5.60
2022-11-03T13:28:47.616Z,6.17
2022-11-03T13:31:14.407Z,6.13
2022-11-03T13:33:41.656Z,5.80
2022-11-03T13:36:09.261Z,5.60
2022-11-03T13:38:36.608Z,6.10
2022-11-03T13:41:08.398Z,4.83
2022-11-03T13:43:39.019Z,6.33
2022-11-03T13:46:06.405Z,7.07
2022-11-03T13:51:21.542Z,5.07
2022-11-03T13:59:25.518Z,8.13
2022-11-03T14:04:46.115Z,4.97
2022-11-03T14:07:13.095Z,6.50
2022-11-03T14:09:40.059Z,5.70
2022-11-03T14:12:25.633Z,7.27
2022-11-03T14:14:52.681Z,9.47
2022-11-03T14:17:19.655Z,7.60
2022-11-03T14:19:52.007Z,6.17
2022-11-03T14:22:23.530Z,7.30
2022-11-03T14:24:51.406Z,4.23
2022-11-03T14:27:19.493Z,5.70
2022-11-03T14:29:49.923Z,6.03
2022-11-03T14:32:18.185Z,5.50
2022-11-03T14:34:45.466Z,6.23
2022-11-03T14:37:13.023Z,5.53
2022-11-03T14:39:40.217Z,5.30
2022-11-03T14:42:20.964Z,6.80
2022-11-03T14:44:48.345Z,8.47
2022-11-03T14:47:18.015Z,6.20
2022-11-03T14:49:46.158Z,10.33
2022-11-03T14:52:13.827Z,7.23
2022-11-03T14:54:40.715Z,6.00
2022-11-03T14:57:08.190Z,6.83
2022-11-03T14:59:35.351Z,7.37
2022-11-03T15:02:03.597Z,9.03
2022-11-03T15:04:30.699Z,7.20
2022-11-03T15:06:57.599Z,6.20
2022-11-03T15:09:24.486Z,6.67
2022-11-03T15:11:54.758Z,5.87
2022-11-03T15:14:21.876Z,9.27
2022-11-03T15:16:48.694Z,9.97
2022-11-03T15:19:18.517Z,7.27
2022-11-03T15:21:45.371Z,6.97
2022-11-03T15:27:22.114Z,7.93
2022-11-03T15:29:49.502Z,11.90
2022-11-03T15:32:16.329Z,8.60
2022-11-03T15:34:43.141Z,9.57
2022-11-03T15:37:10.631Z,8.63
2022-11-03T15:39:37.435Z,13.40
2022-11-03T15:42:13.397Z,9.60
2022-11-03T15:44:40.878Z,12.70
2022-11-03T15:47:12.441Z,9.57
2022-11-03T15:49:47.830Z,9.52
2022-11-03T15:52:14.757Z,11.40
2022-11-03T15:54:42.721Z,9.37
2022-11-03T15:57:09.930Z,9.90
2022-11-03T15:59:36.787Z,9.10
2022-11-03T16:02:14.116Z,9.03
2022-11-03T16:04:56.384Z,7.50
2022-11-03T16:07:23.203Z,6.80
2022-11-03T16:09:50.371Z,14.30
2022-11-03T16:12:17.149Z,9.97
2022-11-03T16:14:44.114Z,8.97
2022-11-03T16:17:10.902Z,8.03
2022-11-03T16:19:37.854Z,13.50
2022-11-03T16:22:04.794Z,10.17
2022-11-03T16:24:35.212Z,7.57
2022-11-03T16:27:03.670Z,11.80
2022-11-03T16:29:30.718Z,8.43
2022-11-03T16:31:57.823Z,13.33
2022-11-03T16:34:24.754Z,9.07
2022-11-03T16:36:51.708Z,11.40
2022-11-03T16:39:27.983Z,15.00
2022-11-03T16:41:55.196Z,12.57
2022-11-03T16:44:22.501Z,10.13
2022-11-03T16:46:49.443Z,9.37
2022-11-03T16:49:16.304Z,13.30
2022-11-03T16:51:43.186Z,13.60
2022-11-03T16:54:10.129Z,11.23
2022-11-03T16:56:36.985Z,12.73
2022-11-03T16:59:04.060Z,10.03
2022-11-03T17:01:31.184Z,11.77
2022-11-03T17:03:58.105Z,12.37
2022-11-03T17:06:25.739Z,10.90
2022-11-03T17:08:53.728Z,11.10
2022-11-03T17:11:36.412Z,13.97
2022-11-03T17:14:13.773Z,14.77
2022-11-03T17:16:48.823Z,15.93
2022-11-03T17:19:16.021Z,15.40
2022-11-03T17:21:43.544Z,15.03
2022-11-03T17:24:11.734Z,17.87
2022-11-03T17:26:54.621Z,17.80
2022-11-03T17:29:35.209Z,20.67
2022-11-03T17:32:04.551Z,23.97
2022-11-03T17:34:32.203Z,27.63
2022-11-03T17:37:02.178Z,25.67
2022-11-03T17:39:34.147Z,20.07
2022-11-03T17:42:15.909Z,22.23
2022-11-03T17:44:47.540Z,24.10
2022-11-03T17:47:15.693Z,24.27
2022-11-03T17:49:43.618Z,25.60
2022-11-03T17:52:24.857Z,19.53
2022-11-03T17:54:57.402Z,17.60
2022-11-03T17:57:25.680Z,26.10
2022-11-03T17:59:55.118Z,27.50
2022-11-03T18:02:25.381Z,24.60
2022-11-03T18:05:15.568Z,21.83
2022-11-03T18:07:45.458Z,21.40
2022-11-03T18:10:12.319Z,25.77
2022-11-03T18:13:01.635Z,25.07
2022-11-03T18:15:29.984Z,24.23
2022-11-03T18:17:57.183Z,31.13
2022-11-03T18:20:29.682Z,24.47
2022-11-03T18:23:17.291Z,27.97
2022-11-03T18:25:44.742Z,26.17
2022-11-03T18:28:12.567Z,26.07
2022-11-03T18:30:45.809Z,26.20
2022-11-03T18:33:25.918Z,29.30
2022-11-03T18:35:54.009Z,28.67
2022-11-03T18:38:23.216Z,26.57
2022-11-03T18:40:50.375Z,26.03
2022-11-03T18:43:25.058Z,24.60
2022-11-03T18:45:52.977Z,25.27
2022-11-03T18:48:19.844Z,28.23
2022-11-03T18:50:50.779Z,27.60
2022-11-03T18:53:21.792Z,26.87
2022-11-03T18:55:48.861Z,26.00
2022-11-03T18:58:20.692Z,27.97
2022-11-03T19:00:47.600Z,31.73
2022-11-03T19:03:17.997Z,26.53
2022-11-03T19:05:50.406Z,24.77
2022-11-03T19:08:30.847Z,26.67
2022-11-03T19:11:06.153Z,25.33
2022-11-03T19:13:40.153Z,28.20
2022-11-03T19:16:17.030Z,29.43
2022-11-03T19:18:48.185Z,34.40
2022-11-03T19:21:24.227Z,28.97
2022-11-03T19:23:57.217Z,31.20
2022-11-03T19:26:42.536Z,30.13
2022-11-03T19:29:19.805Z,32.17
2022-11-03T19:31:49.232Z,30.40
2022-11-03T19:34:34.875Z,32.33
2022-11-03T19:37:01.980Z,31.33
2022-11-03T19:39:35.831Z,33.67
2022-11-03T19:42:28.974Z,30.67
2022-11-03T19:44:56.341Z,33.47
2022-11-03T19:47:35.771Z,33.10
2022-11-03T19:50:05.266Z,31.97
2022-11-03T19:52:35.202Z,37.23
2022-11-03T19:55:05.911Z,35.83
2022-11-03T19:57:33.097Z,38.13
2022-11-03T20:00:00.175Z,34.90
2022-11-03T20:02:28.338Z,33.87
2022-11-03T20:04:55.626Z,33.30
2022-11-03T20:07:28.215Z,34.97
2022-11-03T20:09:58.237Z,31.90
2022-11-03T20:12:25.118Z,33.90
2022-11-03T20:14:52.028Z,31.07
2022-11-03T20:17:21.772Z,35.90
2022-11-03T20:19:48.738Z,34.63
2022-11-03T20:22:19.072Z,34.20
2022-11-03T20:24:48.549Z,32.00
2022-11-03T20:27:19.049Z,34.00
2022-11-03T20:29:45.842Z,36.43
2022-11-03T20:32:13.019Z,36.23
2022-11-03T20:34:40.708Z,31.40
2022-11-03T20:37:20.905Z,31.47
2022-11-03T20:39:48.636Z,33.43
2022-11-03T20:42:23.750Z,35.93
2022-11-03T20:44:51.070Z,34.20
2022-11-03T20:47:18.194Z,34.27
2022-11-03T20:49:45.666Z,35.20
2022-11-03T20:52:16.232Z,32.93
2022-11-03T20:54:43.495Z,32.47
2022-11-03T20:57:14.290Z,33.33
2022-11-03T20:59:41.453Z,30.03
2022-11-03T21:02:13.036Z,29.43
2022-11-03T21:04:44.398Z,30.10
2022-11-03T21:07:12.799Z,34.67
2022-11-03T21:09:40.518Z,33.37
2022-11-03T21:12:12.178Z,32.77
2022-11-03T21:15:00.688Z,34.20
2022-11-03T21:17:46.015Z,30.30
2022-11-03T21:20:12.968Z,28.83
2022-11-03T21:22:57.423Z,28.97
2022-11-03T21:25:25.260Z,27.97
2022-11-03T21:27:54.260Z,28.07
2022-11-03T21:30:22.472Z,27.97
2022-11-03T21:32:49.444Z,26.20
2022-11-03T21:35:20.247Z,29.47
2022-11-03T21:37:47.695Z,29.37
2022-11-03T21:40:14.933Z,28.93
2022-11-03T21:43:00.279Z,29.87
2022-11-03T21:45:27.434Z,27.20
2022-11-03T21:48:14.532Z,31.93
2022-11-03T21:50:42.914Z,27.97
2022-11-03T21:53:10.596Z,32.97
2022-11-03T21:55:38.061Z,28.70
2022-11-03T21:58:05.254Z,28.83
2022-11-03T22:00:32.692Z,28.07
2022-11-03T22:03:00.877Z,26.07
2022-11-03T22:05:28.413Z,28.83
2022-11-03T22:07:55.255Z,29.10
2022-11-03T22:10:22.124Z,25.73
2022-11-03T22:12:49.071Z,31.93
2022-11-03T22:15:35.330Z,25.37
2022-11-03T22:18:03.271Z,26.93
2022-11-03T22:20:48.682Z,33.00
2022-11-03T22:23:34.710Z,26.30
2022-11-03T22:26:20.599Z,25.57
2022-11-03T22:29:07.581Z,22.10
2022-11-03T22:31:43.705Z,24.53
2022-11-03T22:34:29.264Z,26.43
2022-11-03T22:36:56.101Z,22.67
2022-11-03T22:39:41.329Z,29.10
2022-11-03T22:42:29.730Z,25.67
2022-11-03T22:45:15.022Z,23.70
2022-11-03T22:47:41.848Z,26.77
2022-11-03T22:50:09.080Z,25.00
2022-11-03T22:52:35.935Z,26.63
2022-11-03T22:55:02.773Z,30.07
2022-11-03T22:57:29.603Z,28.87
2022-11-03T22:59:56.364Z,28.13
2022-11-03T23:02:23.269Z,24.60
2022-11-03T23:04:50.164Z,27.40
2022-11-03T23:07:17.130Z,27.30
2022-11-03T23:09:44.208Z,27.37
2022-11-03T23:12:11.380Z,25.60
2022-11-03T23:14:56.614Z,24.27
2022-11-03T23:17:43.478Z,26.53
2022-11-03T23:20:28.864Z,25.40
2022-11-03T23:22:55.677Z,29.03
2022-11-03T23:25:22.527Z,23.57
2022-11-03T23:27:49.463Z,22.90
2022-11-03T23:30:16.283Z,24.17
2022-11-03T23:32:43.149Z,26.77
2022-11-03T23:35:10.576Z,25.60
2022-11-03T23:37:37.412Z,25.30
2022-11-03T23:40:04.440Z,24.03
2022-11-03T23:42:31.383Z,25.63
2022-11-03T23:45:16.568Z,23.07
2022-11-03T23:48:01.802Z,24.63
2022-11-03T23:50:28.568Z,24.70
2022-11-03T23:52:55.420Z,25.63
2022-11-03T23:55:22.162Z,23.87
2022-11-03T23:58:07.934Z,24.23
